Date,TemperatureHighF,TemperatureAvgF,TemperatureLowF,DewpointHighF,DewpointAvgF,DewpointLowF,HumidityHigh,HumidityAvg,HumidityLow,PressureMaxIn,PressureMinIn,WindSpeedMaxMPH,WindSpeedAvgMPH,GustSpeedMaxMPH,PrecipitationSumIn
2012-1-1,65.5,50.2,36.2,54.4,39.1,22.9,91,68,34,30.12,29.90,10,1,14,0.00
2012-1-2,47.4,40.0,28.7,23.7,13.2,5.8,50,34,22,30.15,29.94,6,1,20,0.00
2012-1-3,36.3,29.6,21.8,13.1,7.5,2.9,55,40,27,30.35,30.15,6,1,11,0.00
2012-1-4,48.2,34.3,21.1,18.1,12.5,7.6,71,44,19,30.38,30.10,6,1,8,0.00
2012-1-5,58.9,43.9,30.4,31.2,26.0,18.1,84,52,27,30.15,30.05,6,0,7,0.00
2012-1-6,66.3,48.8,33.5,31.3,28.0,25.8,77,48,24,30.10,29.97,6,0,8,0.00
2012-1-7,69.9,54.9,43.5,54.3,43.7,29.8,87,67,47,30.06,29.93,8,1,12,0.00
2012-1-8,56.9,52.8,49.8,54.6,50.4,47.0,94,92,86,30.20,30.05,2,0,4,0.01
2012-1-9,52.4,49.6,47.3,49.4,47.0,44.8,94,91,85,30.19,30.04,2,0,3,0.03
2012-1-10,57.6,54.0,51.0,52.7,50.1,47.1,95,87,70,30.08,29.91,3,0,6,0.00
2012-1-11,60.4,53.6,48.6,59.0,50.4,42.6,95,89,75,29.91,29.45,11,2,14,0.49
2012-1-12,56.3,46.6,32.4,47.8,38.3,13.9,88,73,44,29.77,29.52,16,3,17,0.01
2012-1-13,40.3,32.6,26.7,20.2,16.9,13.3,64,52,38,30.11,29.77,10,2,14,0.00
2012-1-14,48.4,30.4,23.2,22.5,18.7,11.9,84,64,29,30.24,30.10,5,0,11,0.00
2012-1-15,51.7,39.7,31.5,27.0,23.7,20.2,79,54,31,30.49,30.09,2,0,6,0.00
2012-1-16,48.0,40.2,31.2,35.0,29.1,20.1,77,65,51,30.56,30.34,1,0,7,0.00
2012-1-17,53.9,48.2,40.1,52.2,42.9,31.7,94,82,70,30.33,29.90,2,0,10,0.05
2012-1-18,54.2,45.6,36.5,52.8,35.1,24.3,95,70,35,30.07,29.88,2,0,5,0.01
2012-1-19,45.7,37.9,29.8,28.2,25.4,22.2,73,61,47,30.22,30.07,4,0,7,0.00
2012-1-20,49.6,42.3,35.2,43.7,34.6,28.1,89,74,55,30.13,30.06,1,0,4,0.00
2012-1-21,54.1,48.2,43.6,52.7,46.7,42.0,95,95,94,30.06,29.84,1,0,6,0.49
2012-1-22,49.8,43.9,39.2,48.4,40.6,35.7,95,88,79,30.28,30.07,6,1,12,0.00
2012-1-23,44.1,40.0,37.8,42.8,38.4,35.5,95,94,87,30.24,30.02,2,0,13,0.36
2012-1-24,61.3,49.1,43.6,50.6,44.5,39.4,95,85,55,30.22,30.02,3,0,5,0.01
2012-1-25,64.5,52.3,39.9,44.7,38.2,32.8,80,60,38,30.31,30.15,6,0,10,0.00
2012-1-26,60.4,54.7,51.4,58.7,48.7,43.4,94,81,67,30.13,29.67,2,0,7,0.04
2012-1-27,63.1,56.7,43.8,58.7,44.5,29.4,92,67,31,30.00,29.60,6,1,18,0.02
2012-1-28,64.6,49.7,36.0,39.0,33.3,23.2,91,56,35,30.28,30.00,6,0,9,0.00
2012-1-29,54.5,42.0,28.9,27.5,15.4,2.8,69,37,13,30.45,30.28,9,0,9,0.00
2012-1-30,61.7,45.8,31.3,23.1,19.6,14.7,65,37,18,30.51,30.38,5,0,6,0.00
2012-1-31,63.9,49.8,33.9,33.4,25.6,20.0,67,41,23,30.47,30.34,5,0,9,0.00
2012-2-1,65.0,50.0,42.0,51.4,42.0,32.3,95,75,52,30.35,30.13,3,0,8,0.03
2012-2-2,71.4,57.7,49.1,54.7,45.1,31.0,97,68,25,30.34,30.07,6,0,6,0.01
2012-2-3,62.5,51.7,44.7,35.8,31.8,26.8,60,48,30,30.51,30.34,8,1,8,0.00
2012-2-4,55.1,50.0,46.0,50.1,42.9,33.2,94,77,54,30.41,30.08,5,0,6,0.07
2012-2-5,71.8,57.5,47.4,58.0,51.0,42.6,98,81,47,30.22,30.00,9,1,9,0.32
2012-2-6,48.6,43.4,36.7,42.7,37.2,34.8,94,79,67,30.31,30.19,10,1,10,0.00
2012-2-7,59.5,45.0,33.4,40.3,36.1,32.4,97,74,43,30.26,30.17,5,0,5,0.00
2012-2-8,60.1,46.8,38.2,41.9,35.9,30.5,90,68,34,30.24,30.13,4,0,7,0.00
2012-2-9,51.9,41.3,31.3,32.7,30.1,26.8,85,66,44,30.36,30.24,5,0,5,0.00
2012-2-10,59.2,42.7,32.3,39.5,34.4,29.5,91,73,46,30.25,29.94,6,0,6,0.02
2012-2-11,48.7,37.7,24.1,35.2,20.4,2.0,87,52,27,30.26,29.86,12,1,12,0.00
2012-2-12,44.4,29.9,18.0,16.1,8.2,1.6,62,41,23,30.43,30.25,8,1,9,0.00
2012-2-13,53.7,39.2,23.6,23.9,17.2,13.4,71,43,22,30.37,30.17,6,0,6,0.00
2012-2-14,47.0,41.8,36.6,38.3,33.8,20.8,95,75,42,30.17,30.08,6,1,7,0.00
2012-2-15,68.3,49.1,31.6,43.9,36.6,30.6,96,67,30,30.33,30.17,5,0,5,0.00
2012-2-16,56.3,51.3,47.8,52.9,46.4,37.4,96,84,64,30.27,30.05,3,0,3,0.15
2012-2-17,67.8,54.1,41.9,50.8,44.5,39.8,97,73,43,30.19,30.08,5,0,5,0.01
2012-2-18,66.9,55.3,44.7,48.0,41.0,33.8,90,60,40,30.16,29.96,6,0,6,0.04
2012-2-19,50.4,43.5,34.8,48.2,41.8,33.0,95,94,91,30.03,29.73,8,1,10,0.41
2012-2-20,59.4,42.0,30.6,37.9,29.4,20.7,97,66,26,30.36,30.03,7,0,7,0.00
2012-2-21,57.0,44.0,32.1,41.0,34.3,27.1,89,70,46,30.36,30.08,8,0,8,0.00
2012-2-22,68.4,54.1,38.5,53.4,46.7,36.3,96,78,49,30.08,29.65,11,1,11,0.24
2012-2-23,77.5,63.3,51.0,60.8,54.9,49.9,96,77,46,29.74,29.61,8,1,16,0.00
2012-2-24,73.1,63.0,44.6,64.5,49.7,19.3,92,65,23,30.00,29.58,16,2,16,0.18
2012-2-25,55.9,46.5,36.9,23.0,18.2,12.6,50,33,21,30.36,30.00,12,2,22,0.00
2012-2-26,59.8,42.7,31.7,29.7,23.3,18.2,67,48,25,30.55,30.35,5,0,5,0.00
2012-2-27,65.5,47.4,38.0,51.3,40.5,28.3,92,77,59,30.49,30.34,2,0,5,0.00
2012-2-28,72.5,56.3,39.9,50.6,45.1,38.6,96,70,35,30.45,30.31,7,0,8,0.00
2012-2-29,63.8,58.7,54.0,61.1,56.6,49.8,96,93,75,30.31,29.91,5,0,8,0.14
2012-3-1,80.9,67.4,58.3,62.2,48.4,29.7,97,60,16,29.93,29.82,13,1,13,0.02
2012-3-2,71.8,58.6,51.9,61.5,50.8,42.9,89,75,59,29.95,29.69,12,0,12,0.04
2012-3-3,64.1,57.6,51.0,60.5,46.9,26.0,96,71,35,29.83,29.65,12,0,12,1.68
2012-3-4,52.3,46.6,37.7,34.2,22.0,12.6,60,39,21,30.09,29.73,17,2,17,0.00
2012-3-5,57.9,45.8,34.7,30.5,21.5,12.7,72,42,18,30.52,29.98,14,1,14,0.00
2012-3-6,62.4,44.3,29.8,29.0,22.4,18.9,75,45,23,30.70,30.52,8,0,8,0.00
2012-3-7,66.4,53.4,41.9,48.5,40.7,23.2,75,63,44,30.66,30.46,4,0,5,0.00
2012-3-8,75.3,63.1,52.7,56.2,50.7,47.5,87,66,42,30.46,30.12,9,1,9,0.00
2012-3-9,65.4,57.0,48.5,56.5,42.6,25.7,96,64,31,30.35,30.10,5,0,5,0.50
2012-3-10,66.8,51.6,39.8,29.1,24.5,15.1,65,37,14,30.54,30.34,10,1,10,0.00
2012-3-11,70.1,53.4,39.1,44.2,35.0,25.9,71,52,28,30.61,30.43,6,0,6,0.00
2012-3-12,66.9,59.8,54.3,55.6,50.2,44.3,93,71,58,30.46,30.30,5,0,5,0.00
2012-3-13,79.2,63.2,56.8,61.6,57.2,54.7,94,82,50,30.30,30.16,5,0,7,0.00
2012-3-14,85.8,62.8,54.6,62.1,54.6,44.5,96,79,25,30.28,30.18,3,0,4,0.00
2012-3-15,90.0,73.0,53.1,55.2,50.0,45.3,87,49,23,30.29,30.17,7,0,7,0.00
2012-3-16,90.3,70.4,58.5,57.0,53.2,47.7,86,58,31,30.26,30.11,7,1,7,0.05
2012-3-17,81.2,63.7,53.9,55.2,52.8,49.2,95,71,35,30.26,30.16,6,0,10,0.02
2012-3-18,79.0,64.2,55.4,58.8,54.0,51.5,94,71,43,30.35,30.20,4,0,6,0.20
2012-3-19,85.3,69.7,53.6,58.0,52.8,47.9,93,59,30,30.25,30.10,5,0,5,0.00
2012-3-20,84.8,69.5,55.8,57.7,53.5,50.6,88,60,34,30.23,30.11,5,0,5,0.00
2012-3-21,78.7,67.5,55.2,58.5,53.9,49.8,92,64,41,30.31,30.18,6,0,6,0.00
2012-3-22,72.9,63.5,57.8,61.7,55.4,43.6,81,75,56,30.29,30.17,1,0,6,0.23
2012-3-23,76.0,63.1,57.8,62.9,53.9,46.6,82,72,61,30.20,29.99,8,0,8,0.07
2012-3-24,76.3,64.6,54.5,59.8,47.9,38.3,80,57,30,29.99,29.76,12,1,12,0.05
2012-3-25,66.9,56.6,49.4,47.9,45.0,41.5,78,66,48,29.92,29.76,7,0,8,0.00
2012-3-26,85.2,63.7,51.0,47.2,43.1,32.3,80,53,17,30.09,29.91,6,0,6,0.00
2012-3-27,71.6,58.0,47.6,45.0,35.7,27.0,65,45,25,30.34,30.09,8,0,8,0.00
2012-3-28,78.7,61.4,45.7,57.2,46.8,34.3,80,60,38,30.27,29.98,7,0,7,0.00
2012-3-29,83.2,67.2,55.5,53.9,50.3,47.2,75,56,30,30.02,29.89,5,0,6,0.00
2012-3-30,81.0,62.8,54.0,58.4,48.7,38.3,80,63,32,30.03,29.88,7,0,7,0.38
2012-3-31,77.5,61.6,52.8,60.0,49.5,41.0,81,65,47,29.94,29.77,3,0,3,1.81
2012-4-1,83.3,62.9,50.0,58.8,47.9,39.2,81,61,30,29.92,29.78,4,0,4,0.01
2012-4-2,89.4,66.4,52.0,62.4,53.3,41.0,80,65,32,29.93,29.75,5,0,5,0.02
2012-4-3,71.0,62.4,57.6,62.3,52.8,45.5,80,71,61,30.04,29.92,2,0,2,0.02
2012-4-4,84.5,64.4,55.6,62.6,52.2,43.3,80,66,39,29.97,29.70,6,0,7,0.07
2012-4-5,81.7,63.6,49.5,61.6,52.5,37.4,79,68,48,29.82,29.63,8,0,9,0.60
2012-4-6,66.5,51.3,43.5,43.0,38.4,33.6,83,63,38,30.14,29.79,6,0,6,0.21
2012-4-7,74.8,55.4,40.0,42.0,37.3,29.7,82,55,24,30.32,30.14,4,0,4,0.00
2012-4-8,79.8,61.3,45.6,47.6,41.7,33.9,80,53,23,30.21,29.99,7,0,7,0.00
2012-4-9,76.9,62.2,50.0,43.0,31.4,14.6,67,35,12,30.14,29.91,14,1,14,0.00
2012-4-10,76.4,58.7,43.8,41.2,35.6,28.9,73,43,25,30.05,29.89,9,1,16,0.00
2012-4-11,70.5,52.6,39.9,33.4,23.3,16.0,52,33,15,30.18,29.94,5,0,5,0.00
2012-4-12,67.3,48.1,32.1,31.7,24.8,19.4,70,43,19,30.31,30.16,4,0,4,0.00
2012-4-13,73.1,53.8,36.8,39.8,31.1,25.5,80,47,19,30.30,30.18,5,0,5,0.00
2012-4-14,76.8,58.0,42.0,45.7,38.2,29.2,79,51,27,30.38,30.22,4,0,4,0.00
2012-4-15,77.0,61.5,46.7,60.0,50.3,38.2,79,67,49,30.27,30.17,6,0,6,0.00
2012-4-16,80.6,66.7,56.4,58.1,54.3,48.2,78,66,45,30.25,30.15,9,1,10,0.00
2012-4-17,82.6,67.5,55.7,59.3,53.1,42.9,77,61,40,30.21,30.05,1,0,8,0.49
2012-4-18,58.3,52.0,50.2,50.8,42.6,39.5,80,70,63,30.16,30.09,7,0,8,0.60
2012-4-19,67.8,55.2,47.6,55.8,46.5,36.8,81,73,61,30.14,30.04,4,0,6,0.00
2012-4-20,73.4,59.2,50.9,58.3,49.0,38.8,81,69,53,30.08,29.89,3,0,4,0.00
2012-4-21,73.5,63.3,55.8,60.1,53.5,43.0,79,71,58,29.93,29.72,5,0,5,0.00
2012-4-22,73.1,55.5,42.0,53.4,46.5,32.2,81,72,47,29.72,29.52,8,0,8,0.38
2012-4-23,57.9,45.7,38.2,33.5,28.7,21.9,75,53,32,29.85,29.67,8,0,8,0.00
2012-4-24,65.9,47.8,34.4,35.6,28.7,23.0,78,51,22,29.91,29.83,12,1,12,0.00
2012-4-25,77.6,64.3,44.1,56.5,51.1,37.2,80,64,40,29.99,29.87,3,0,4,0.00
2012-4-26,75.8,65.5,57.7,61.0,54.1,47.0,78,67,55,29.98,29.83,6,1,7,0.54
2012-4-27,83.6,69.2,56.8,66.3,57.9,44.8,80,68,50,30.08,29.92,4,0,4,0.01
2012-4-28,71.0,64.7,54.8,56.7,53.8,48.8,80,68,57,30.18,30.09,4,0,4,0.00
2012-4-29,85.8,65.9,50.2,63.3,53.7,38.8,81,66,41,30.20,30.11,3,0,4,0.00
2012-4-30,88.8,71.6,58.3,65.9,58.8,49.3,80,66,42,30.22,30.08,3,0,3,0.00
2012-5-1,87.1,72.8,62.5,67.4,61.6,55.8,79,69,47,30.19,30.06,5,0,5,0.00
2012-5-2,89.4,73.9,60.4,65.6,59.5,50.0,79,63,37,30.18,30.08,3,0,4,0.00
2012-5-3,90.1,73.2,59.7,64.1,59.6,50.4,79,64,36,30.18,30.08,4,0,4,0.00
2012-5-4,85.0,71.2,64.0,63.4,60.2,57.4,79,69,44,30.12,29.97,5,0,6,0.00
2012-5-5,84.5,73.3,61.5,64.7,58.9,49.4,80,62,44,29.98,29.84,3,0,3,0.00
2012-5-6,81.9,70.6,61.2,63.1,59.0,54.6,79,67,51,30.04,29.92,5,0,5,0.00
2012-5-7,79.8,68.3,60.6,63.6,57.4,50.5,80,69,49,30.06,29.92,5,0,5,0.00
2012-5-8,79.8,69.4,63.4,66.3,59.3,51.9,79,71,54,29.98,29.83,5,0,5,0.14
2012-5-9,67.5,62.6,52.6,60.8,55.1,46.6,81,76,63,29.90,29.72,4,0,4,0.51
2012-5-10,75.3,61.7,46.8,51.5,44.7,40.5,82,57,32,30.00,29.83,6,0,6,0.00
2012-5-11,77.9,62.8,49.9,48.2,43.3,39.2,73,51,30,30.24,30.01,6,0,6,0.00
2012-5-12,71.9,61.7,53.6,57.3,51.2,45.0,78,69,55,30.37,30.24,2,0,2,0.00
2012-5-13,61.2,58.7,55.2,54.1,50.5,47.5,81,75,65,30.28,30.10,1,0,1,0.97
2012-5-14,79.0,68.0,60.2,67.6,57.7,49.6,82,70,60,30.10,29.91,3,0,3,1.30
2012-5-15,83.8,69.9,60.3,67.9,57.9,49.3,82,66,47,30.02,29.92,3,0,7,0.00
2012-5-16,84.6,72.0,60.2,65.0,59.3,53.7,82,66,43,30.00,29.90,3,0,4,0.00
2012-5-17,79.0,68.5,60.9,63.2,58.4,55.4,82,71,52,30.06,29.94,4,0,4,0.00
2012-5-18,78.2,67.5,58.9,60.9,57.0,51.3,82,70,51,30.13,30.04,4,0,7,0.00
2012-5-19,78.8,67.4,56.2,56.6,53.3,49.6,82,62,40,30.18,30.07,7,0,7,0.00
2012-5-20,85.7,70.3,56.3,58.3,52.1,48.0,82,56,32,30.17,30.05,5,0,6,0.00
2012-5-21,86.6,71.2,58.1,60.6,55.4,50.9,81,60,36,30.08,29.91,3,0,6,0.00
2012-5-22,79.5,68.2,59.7,66.0,57.5,50.6,82,69,50,29.95,29.80,5,0,5,0.44
2012-5-23,78.8,65.7,58.0,65.9,56.6,48.0,82,73,55,29.95,29.85,4,0,4,0.00
2012-5-24,86.6,74.0,60.8,67.1,60.0,52.1,82,63,40,30.03,29.93,3,0,3,0.02
2012-5-25,92.2,77.5,65.6,65.4,61.4,57.9,81,60,35,30.14,30.02,2,0,3,0.00
2012-5-26,93.0,78.6,65.3,69.1,63.5,59.3,82,62,39,30.16,30.05,6,0,7,0.00
2012-5-27,86.5,77.6,68.7,66.8,64.2,61.1,80,65,46,30.13,30.03,6,0,6,0.00
2012-5-28,85.5,74.5,67.1,69.9,64.8,59.2,81,73,51,30.09,29.96,4,0,6,0.00
2012-5-29,77.8,71.9,68.1,70.7,64.7,57.7,81,78,69,30.02,29.85,2,0,2,0.42
2012-5-30,91.9,75.9,62.5,68.9,57.1,48.7,82,55,30,29.87,29.79,4,0,4,0.00
2012-5-31,89.2,76.2,60.7,65.9,58.5,51.9,79,56,40,29.91,29.78,4,0,5,0.00
2012-6-1,81.0,68.9,61.3,66.3,60.3,53.2,82,74,56,29.89,29.74,6,0,6,0.07
2012-6-2,78.8,65.5,51.3,54.9,49.2,45.8,84,59,34,29.98,29.84,6,0,6,0.00
2012-6-3,85.7,69.2,51.0,58.7,52.2,45.9,83,57,33,30.02,29.87,5,0,5,0.00
2012-6-4,82.3,71.2,64.1,68.2,60.5,54.5,82,70,47,29.88,29.72,3,0,4,0.24
2012-6-5,74.7,66.2,60.7,63.9,57.2,51.2,83,73,61,29.90,29.75,2,0,3,0.86
2012-6-6,70.7,64.0,60.0,59.7,56.9,54.2,84,78,64,30.04,29.87,8,0,8,0.00
2012-6-7,81.2,68.8,59.2,61.6,57.5,54.0,84,69,43,30.10,30.00,2,0,3,0.00
2012-6-8,83.4,72.3,60.0,63.0,58.1,54.8,83,63,43,30.10,30.00,3,0,3,0.00
2012-6-9,86.1,73.3,61.3,64.0,59.2,55.8,83,63,39,30.12,30.02,3,0,4,0.00
2012-6-10,69.2,66.1,63.3,62.8,58.8,53.9,82,77,68,30.16,30.07,2,0,3,0.49
2012-6-11,77.8,68.9,63.5,70.5,60.6,53.5,83,75,70,30.15,30.01,2,0,2,0.47
2012-6-12,85.7,74.3,68.3,72.9,64.4,58.1,83,72,60,30.03,29.87,4,0,4,0.10
2012-6-13,87.6,74.8,65.0,69.4,63.4,54.7,84,69,48,30.00,29.93,3,0,3,0.00
2012-6-14,82.7,72.1,61.5,65.7,60.5,54.5,84,68,44,30.16,30.00,3,0,4,1.47
2012-6-15,80.2,71.8,64.2,64.5,60.0,55.4,83,67,52,30.25,30.13,5,0,5,0.00
2012-6-16,82.6,70.8,59.3,60.8,56.6,52.4,84,62,43,30.31,30.14,4,0,4,0.00
2012-6-17,84.3,72.8,60.6,62.1,57.8,53.0,80,61,42,30.20,30.02,3,0,4,0.00
2012-6-18,87.2,75.0,63.1,66.7,61.4,57.5,83,64,44,30.12,30.04,3,0,3,0.00
2012-6-19,89.4,76.1,63.2,64.9,62.1,58.2,84,64,41,30.20,30.11,3,0,3,0.00
2012-6-20,90.5,77.6,65.7,68.9,65.0,59.8,83,67,43,30.20,30.08,3,0,4,0.00
2012-6-21,92.7,78.8,67.3,70.5,65.9,61.6,83,66,41,30.11,29.94,5,0,5,0.00
2012-6-22,92.7,78.1,67.4,70.9,66.1,61.6,83,68,41,29.99,29.87,4,0,4,0.00
2012-6-23,93.7,77.5,67.5,71.2,65.9,58.9,83,69,42,30.00,29.90,4,0,4,0.00
2012-6-24,94.2,77.3,68.5,72.5,66.2,60.6,83,70,44,30.01,29.89,3,0,3,1.26
2012-6-25,89.8,77.1,67.9,73.8,66.4,57.8,84,70,51,29.95,29.72,2,0,3,0.06
2012-6-26,86.1,75.1,66.1,65.8,56.0,45.8,84,54,29,29.90,29.75,6,0,6,0.00
2012-6-27,88.0,73.8,57.5,56.8,53.1,47.7,82,52,28,30.03,29.90,3,0,3,0.00
2012-6-28,96.0,79.4,61.2,65.6,59.9,54.6,84,55,29,30.07,29.93,2,0,5,0.00
2012-6-29,104.5,85.5,66.6,71.1,64.2,57.8,83,54,24,29.94,29.82,4,0,6,0.00
2012-6-30,102.8,88.4,74.7,70.9,67.8,62.6,76,53,28,29.92,29.82,3,0,3,0.00
2012-7-1,107.6,87.8,68.5,74.5,67.1,56.3,83,56,22,30.10,29.85,8,0,8,0.17
2012-7-2,90.4,77.8,67.0,72.1,65.1,57.3,84,66,46,30.18,29.98,8,0,9,0.31
2012-7-3,97.6,82.6,72.2,73.1,68.0,63.6,83,64,35,30.05,29.94,4,0,5,0.00
2012-7-4,94.8,80.5,68.2,74.2,68.2,62.8,83,67,42,30.03,29.94,2,0,4,0.00
2012-7-5,99.3,82.5,69.6,73.0,68.9,62.2,83,67,35,30.00,29.89,6,0,8,0.39
2012-7-6,97.6,84.9,67.7,71.3,66.1,59.8,84,56,35,30.00,29.93,4,0,4,0.00
2012-7-7,97.1,82.5,70.1,73.3,69.1,62.8,83,66,42,30.05,29.95,3,0,3,0.00
2012-7-8,97.8,81.7,73.7,74.3,70.5,67.4,82,70,44,30.02,29.87,3,0,5,0.00
2012-7-9,99.3,84.8,72.9,72.6,70.2,66.5,83,63,40,29.94,29.87,7,0,7,0.00
2012-7-10,90.5,75.7,68.0,73.9,66.6,59.4,83,74,54,30.07,29.93,3,0,5,1.81
2012-7-11,83.0,72.8,67.7,71.4,63.6,58.5,85,73,63,30.12,30.02,2,0,2,0.05
2012-7-12,75.7,69.3,65.1,68.7,62.4,57.0,85,79,72,30.18,30.10,0,0,5,0.95
2012-7-13,81.9,73.0,67.4,73.6,64.9,58.1,85,76,71,30.20,30.11,0,0,1,0.71
2012-7-14,89.6,77.5,70.9,73.4,67.1,60.6,85,71,53,30.23,30.11,2,0,2,0.00
2012-7-15,88.3,76.8,69.6,73.6,68.6,60.3,85,76,53,30.23,30.09,2,0,3,0.05
2012-7-16,95.1,76.7,68.0,74.2,66.2,59.5,85,71,45,30.13,29.96,3,0,4,0.56
2012-7-17,94.1,79.1,67.7,75.1,66.9,58.0,85,67,47,30.03,29.93,7,0,7,0.01
2012-7-18,95.9,78.6,70.0,75.2,68.8,61.3,85,73,47,30.04,29.94,3,0,3,0.00
2012-7-19,92.9,77.2,68.3,74.5,67.2,59.6,85,72,53,30.07,29.97,3,0,3,0.00
2012-7-20,88.3,77.2,67.7,74.3,68.8,58.9,85,76,58,30.01,29.93,4,0,14,0.28
2012-7-21,90.5,76.5,68.5,74.7,67.3,58.9,85,74,55,30.11,29.97,5,0,5,0.00
2012-7-22,93.2,80.5,69.7,73.9,68.3,61.3,85,68,46,30.20,30.11,6,0,6,0.00
2012-7-23,95.1,81.7,71.3,74.4,70.7,65.9,85,71,47,30.22,30.05,3,0,7,0.00
2012-7-24,96.8,82.4,72.6,74.6,70.6,65.7,85,69,43,30.08,29.93,4,0,4,0.00
2012-7-25,95.0,80.9,71.3,74.4,69.8,65.2,85,70,48,30.01,29.91,4,0,5,0.00
2012-7-26,97.5,84.0,71.9,75.2,70.8,65.8,84,67,43,29.95,29.83,7,0,7,0.00
2012-7-27,96.0,81.6,74.2,74.6,70.7,64.9,84,71,43,29.96,29.87,5,0,5,0.02
2012-7-28,97.3,83.2,71.5,72.9,68.3,63.8,85,64,36,30.02,29.91,4,0,4,0.00
2012-7-29,92.8,81.1,69.6,69.7,65.5,61.3,83,61,38,30.03,29.92,3,0,4,0.00
2012-7-30,93.9,80.4,71.3,71.8,66.6,63.5,81,64,40,30.00,29.91,5,0,5,0.00
2012-7-31,74.4,69.7,67.8,67.2,62.1,58.8,85,77,72,30.00,29.93,2,0,2,3.59
2012-8-1,94.6,78.4,66.8,72.9,65.6,58.6,87,66,41,29.97,29.87,3,0,3,0.00
2012-8-2,97.0,81.4,69.2,72.9,67.7,61.7,85,66,40,29.97,29.85,3,0,4,0.02
2012-8-3,90.5,78.3,69.3,75.0,68.5,61.3,85,73,52,30.05,29.90,3,0,3,0.49
2012-8-4,84.2,74.4,69.8,74.5,67.1,60.8,85,78,66,30.21,30.04,3,0,3,1.08
2012-8-5,83.8,73.5,69.4,73.0,65.4,60.5,86,76,63,30.25,30.19,0,0,1,0.00
2012-8-6,92.9,77.6,70.3,72.7,68.0,63.5,86,74,50,30.16,30.01,0,0,3,0.18
2012-8-7,80.2,76.0,70.0,72.5,69.4,61.3,86,80,74,30.07,29.98,1,0,1,1.20
2012-8-8,90.2,74.1,68.3,74.8,67.6,60.1,87,81,59,30.04,29.96,2,0,3,0.10
2012-8-9,88.5,72.1,66.8,75.3,64.5,58.6,86,77,65,30.03,29.87,1,0,2,1.45
2012-8-10,85.3,73.7,66.6,72.2,65.4,58.4,87,76,61,29.92,29.82,6,0,6,0.00
2012-8-11,81.5,74.9,66.0,71.0,66.7,58.5,87,76,67,29.96,29.87,2,0,13,0.02
2012-8-12,89.5,74.8,63.1,67.7,62.8,57.3,84,68,43,30.04,29.96,2,0,3,0.00
2012-8-13,89.0,74.4,63.1,67.6,61.8,56.3,87,67,35,30.07,29.95,3,0,4,0.00
2012-8-14,88.8,75.0,65.8,70.6,65.4,61.0,86,73,51,30.00,29.88,2,0,3,0.00
2012-8-15,87.6,75.7,69.4,72.1,66.8,62.4,86,75,55,30.00,29.91,2,0,3,0.00
2012-8-16,89.0,74.5,63.0,67.2,63.4,58.1,86,70,42,30.07,29.95,2,0,3,0.00
2012-8-17,85.2,74.9,65.1,71.3,66.5,59.2,86,76,58,30.02,29.85,3,0,4,0.00
2012-8-18,84.4,73.2,66.5,69.9,65.2,59.0,86,77,57,29.96,29.85,13,0,13,0.23
2012-8-19,77.5,70.3,66.4,71.1,63.6,58.3,87,80,74,29.92,29.84,1,0,2,0.71
2012-8-20,82.3,71.3,63.2,68.2,62.7,55.2,87,75,52,30.00,29.88,3,0,3,0.26
2012-8-21,86.2,71.2,60.6,68.2,61.7,56.4,87,73,47,30.09,29.98,2,0,3,1.31
2012-8-22,85.3,71.0,62.6,69.9,61.9,54.9,87,74,52,30.15,30.05,2,0,2,0.01
2012-8-23,85.0,73.5,64.9,69.4,64.5,57.6,86,74,53,30.17,30.08,3,0,3,0.02
2012-8-24,86.5,73.5,63.5,67.1,62.4,56.6,86,70,47,30.17,30.08,3,0,3,0.00
2012-8-25,87.3,71.6,62.3,67.1,62.0,56.7,86,73,47,30.18,30.09,1,0,3,0.02
2012-8-26,91.3,77.4,63.3,69.0,64.2,56.3,87,65,44,30.21,30.09,2,0,2,0.00
2012-8-27,88.5,75.2,64.9,69.2,64.7,60.6,87,71,49,30.17,30.03,3,0,4,0.00
2012-8-28,81.7,73.8,69.3,72.9,67.9,63.9,86,82,73,30.05,29.97,1,0,1,0.07
2012-8-29,85.8,74.2,69.8,75.3,66.9,61.2,86,78,68,30.04,29.95,1,0,2,0.03
2012-8-30,82.1,74.2,69.0,73.7,67.7,60.5,86,80,72,30.19,30.00,1,0,1,0.04
2012-8-31,94.2,79.1,71.0,73.7,68.7,62.3,86,71,49,30.25,30.12,2,0,2,0.00
2012-9-1,95.6,80.1,71.3,73.3,69.2,65.3,86,71,41,30.18,30.05,2,0,4,0.00
2012-9-2,86.9,75.5,70.1,73.9,68.8,62.7,86,80,61,30.08,29.95,2,0,2,0.18
2012-9-3,82.6,72.7,69.0,74.9,65.6,60.8,86,79,75,30.02,29.94,4,0,4,0.55
2012-9-4,81.0,72.5,69.8,72.8,65.5,61.2,86,79,74,30.00,29.92,2,0,2,0.06
2012-9-5,86.0,74.2,69.8,73.7,66.6,61.5,86,77,62,29.99,29.89,2,0,2,0.03
2012-9-6,89.0,75.9,69.8,75.3,68.7,61.5,86,79,60,29.98,29.89,2,0,2,0.00
2012-9-7,88.4,75.7,67.6,74.1,67.9,59.5,87,77,58,30.00,29.87,2,0,3,0.00
2012-9-8,89.2,72.9,66.6,74.1,65.5,59.6,86,78,56,29.89,29.72,2,0,3,0.10
2012-9-9,86.0,69.0,58.8,60.8,54.7,48.6,84,63,31,30.04,29.85,4,0,4,0.00
2012-9-10,82.8,68.0,57.1,59.9,55.7,51.7,86,67,41,30.17,30.03,2,0,3,0.00
2012-9-11,82.8,67.7,61.8,62.0,58.3,54.2,86,73,47,30.32,30.17,2,0,2,0.00
2012-9-12,83.1,68.6,60.5,62.1,58.5,56.6,87,72,44,30.38,30.26,4,0,4,0.00
2012-9-13,81.7,66.6,56.5,60.7,56.8,52.2,87,72,45,30.37,30.26,3,0,4,0.00
2012-9-14,85.8,69.7,61.1,62.5,58.5,55.9,84,70,40,30.30,30.18,2,0,3,0.00
2012-9-15,87.3,72.0,61.7,64.5,61.1,57.8,87,71,43,30.22,30.10,4,0,4,0.00
2012-9-16,81.6,70.6,64.5,68.2,63.5,60.2,87,79,59,30.15,30.05,2,0,2,0.35
2012-9-17,76.1,68.8,65.9,70.7,62.3,58.1,86,80,75,30.11,29.86,2,0,3,0.63
2012-9-18,73.7,69.4,65.2,68.6,64.0,59.4,87,83,78,29.88,29.72,4,0,4,0.41
2012-9-19,78.6,65.0,55.9,60.7,56.3,50.4,85,74,51,30.14,29.88,5,0,5,0.00
2012-9-20,77.2,64.4,55.4,61.9,57.1,50.0,87,78,57,30.19,30.08,1,0,2,0.00
2012-9-21,83.3,68.1,58.3,65.2,59.1,51.8,87,74,49,30.13,30.00,4,0,4,0.00
2012-9-22,87.8,71.0,60.2,65.9,60.9,53.5,87,72,46,30.03,29.93,3,0,4,0.00
2012-9-23,83.3,65.3,51.6,59.3,48.5,42.1,87,57,28,30.15,30.03,2,0,2,0.00
2012-9-24,77.7,59.4,47.5,48.1,43.5,39.1,82,57,34,30.26,30.15,4,0,4,0.00
2012-9-25,82.9,62.1,48.2,61.0,52.9,44.4,88,74,43,30.27,30.20,2,0,2,0.00
2012-9-26,85.8,66.7,54.7,61.5,56.2,48.9,87,71,40,30.26,30.16,2,0,2,0.00
2012-9-27,87.3,68.4,54.6,61.7,56.5,48.4,88,69,35,30.24,30.12,2,0,3,0.00
2012-9-28,86.3,70.4,60.6,65.2,60.8,55.8,87,73,48,30.15,29.99,3,0,3,0.00
2012-9-29,76.2,67.2,63.3,66.6,61.8,58.2,87,83,70,30.04,29.86,2,0,4,0.05
2012-9-30,76.2,64.8,58.6,61.1,57.3,53.4,87,77,58,29.95,29.86,3,0,7,0.02
2012-10-1,61.4,59.7,58.6,56.6,53.1,51.8,86,79,78,29.89,29.79,4,0,8,1.88
2012-10-2,80.6,68.3,59.5,66.9,60.4,52.6,87,76,56,30.00,29.76,3,0,3,0.65
2012-10-3,77.7,66.5,61.5,63.0,59.7,55.2,87,79,57,30.23,30.00,3,0,3,0.00
2012-10-4,86.6,68.2,60.8,62.8,58.0,53.7,87,72,40,30.28,30.18,3,0,3,0.00
2012-10-5,85.5,66.3,54.4,61.1,56.1,50.1,88,72,40,30.24,30.05,2,0,4,0.00
2012-10-6,85.1,67.7,56.0,64.8,58.4,49.3,87,74,46,30.06,29.90,3,0,3,0.00
2012-10-7,68.3,59.6,53.5,60.1,54.6,48.2,87,83,73,30.14,29.95,2,0,4,0.04
2012-10-8,53.4,49.8,46.8,48.7,44.2,39.8,88,81,71,30.22,30.13,4,0,5,0.00
2012-10-9,54.7,49.5,46.6,48.4,45.1,41.7,89,85,76,30.24,30.14,1,0,1,0.00
2012-10-10,74.8,55.5,43.2,56.7,45.9,37.8,88,72,44,30.19,30.08,7,0,7,0.00
2012-10-11,74.0,55.4,44.4,51.0,45.4,40.2,88,71,40,30.34,30.19,2,0,3,0.00
2012-10-12,77.7,60.7,48.4,59.5,52.4,44.2,88,76,49,30.32,30.21,3,0,3,0.00
2012-10-13,71.2,57.4,50.4,53.5,47.2,41.4,83,70,44,30.48,30.32,4,0,7,0.00
2012-10-14,67.9,59.4,51.2,60.4,53.6,46.2,87,81,71,30.36,30.07,2,0,2,0.00
2012-10-15,79.3,64.7,51.8,63.3,52.8,40.4,87,68,32,30.07,29.80,5,0,7,0.23
2012-10-16,75.4,56.5,44.4,49.5,44.6,40.9,88,67,34,30.01,29.90,2,0,4,0.00
2012-10-17,76.3,57.7,46.8,51.0,46.5,42.9,88,69,34,30.03,29.90,3,0,3,0.00
2012-10-18,67.5,57.2,48.5,60.2,51.9,44.4,88,83,75,29.94,29.82,2,0,2,0.05
2012-10-19,72.0,57.3,46.5,50.7,42.0,32.4,88,61,25,29.84,29.75,5,0,9,0.01
2012-10-20,72.4,54.4,41.2,49.0,43.2,37.9,88,68,38,30.00,29.82,4,0,4,0.00
2012-10-21,74.7,55.3,43.1,49.2,44.7,39.8,88,70,38,30.20,30.01,3,0,3,0.00
2012-10-22,81.0,59.2,45.7,54.1,48.0,40.5,88,69,35,30.28,30.16,1,0,2,0.00
2012-10-23,81.1,60.9,47.8,55.1,49.5,42.7,88,69,35,30.24,30.13,2,0,3,0.00
2012-10-24,82.4,61.7,48.0,56.8,48.8,42.5,88,66,31,30.24,30.11,3,0,3,0.00
2012-10-25,78.5,61.8,51.0,60.7,53.8,47.4,88,76,51,30.18,30.09,4,0,4,0.00
2012-10-26,81.6,65.8,56.4,62.3,56.1,52.0,87,72,49,30.11,29.95,4,0,7,0.00
2012-10-27,77.3,63.2,56.5,60.0,54.9,49.3,87,75,53,29.97,29.73,4,0,5,0.00
2012-10-28,73.8,54.9,45.2,51.2,45.2,34.1,85,71,41,29.80,29.68,6,0,8,0.02
2012-10-29,61.6,47.9,43.7,37.2,32.2,28.2,68,55,36,29.78,29.64,15,0,15,0.00
2012-10-30,51.9,44.7,41.7,32.8,29.9,26.3,64,56,45,29.75,29.55,11,1,11,0.00
2012-10-31,62.4,48.8,41.6,34.7,28.1,18.7,66,47,25,29.86,29.73,11,1,15,0.00
2012-11-1,64.5,47.7,34.1,30.7,22.5,12.0,77,40,16,29.98,29.85,5,0,6,0.00
2012-11-2,72.4,52.8,38.7,43.6,32.9,22.1,68,48,31,30.02,29.85,6,0,8,0.00
2012-11-3,74.9,53.9,38.3,45.8,38.9,34.4,88,61,26,30.15,30.01,4,0,4,0.00
2012-11-4,68.8,55.2,46.9,53.3,45.7,37.3,86,72,48,30.04,29.93,3,0,3,0.02
2012-11-5,65.1,50.8,40.6,43.1,35.8,33.1,80,58,33,30.12,30.01,5,0,5,0.00
2012-11-6,48.2,42.1,39.1,36.8,34.1,31.1,88,74,55,30.13,30.00,6,0,6,0.05
2012-11-7,45.6,40.2,37.6,40.5,36.0,31.8,88,85,75,30.05,29.93,2,0,2,0.08
2012-11-8,65.3,47.1,35.7,38.6,32.0,27.2,89,60,26,30.21,30.05,5,0,5,0.00
2012-11-9,69.4,48.3,32.3,37.8,32.0,28.7,88,58,24,30.34,30.20,4,0,4,0.00
2012-11-10,73.4,51.4,34.9,42.5,35.1,31.6,88,60,22,30.41,30.30,5,0,5,0.00
2012-11-11,70.0,53.8,37.0,51.9,43.7,33.8,88,70,45,30.51,30.40,4,0,5,0.00
2012-11-12,68.3,59.7,52.7,59.4,54.5,47.1,87,83,72,30.42,30.20,4,0,6,0.25
2012-11-13,64.9,50.3,41.4,53.3,38.6,28.0,88,66,35,30.41,30.19,6,0,6,0.01
2012-11-14,51.4,42.4,34.5,32.4,29.2,27.0,78,60,43,30.51,30.37,10,0,10,0.00
2012-11-15,55.6,40.9,34.2,38.7,33.4,29.5,88,76,52,30.39,30.28,5,0,5,0.24
2012-11-16,63.4,43.3,31.5,39.5,32.1,28.2,88,68,33,30.42,30.31,4,0,4,0.00
2012-11-17,60.2,45.3,36.3,32.2,28.5,24.0,79,54,28,30.52,30.41,8,0,8,0.00
2012-11-18,58.6,48.5,43.2,43.0,35.4,24.0,76,61,45,30.48,30.38,5,0,5,0.00
2012-11-19,61.7,52.0,46.0,48.9,44.0,37.8,87,74,61,30.38,30.23,6,0,6,0.00
2012-11-20,65.1,50.5,43.1,46.3,42.2,39.4,88,75,48,30.25,30.09,2,0,3,0.00
2012-11-21,69.0,49.6,37.1,43.7,37.5,33.5,89,67,36,30.22,30.12,4,0,5,0.00
2012-11-22,70.8,49.2,37.7,37.0,33.4,29.5,82,58,25,30.32,30.20,3,0,5,0.00
2012-11-23,67.7,50.6,33.7,47.3,38.0,30.5,88,65,35,30.22,29.98,8,1,11,0.00
2012-11-24,57.5,42.5,32.0,32.8,24.8,15.6,79,52,26,30.15,30.03,4,0,6,0.00
2012-11-25,53.0,38.2,25.0,24.3,19.9,15.9,76,50,29,30.25,30.11,5,0,7,0.00
2012-11-26,70.0,48.8,30.9,30.8,24.8,17.4,69,42,21,30.26,30.15,4,0,4,0.00
2012-11-27,54.8,49.1,47.2,48.9,31.7,25.7,84,52,39,30.20,30.12,1,0,2,0.00
2012-11-28,60.9,47.0,39.2,40.4,35.7,23.4,88,66,42,30.41,30.25,1,0,5,0.00
2012-11-29,59.1,42.6,30.0,40.3,31.5,22.9,86,66,46,30.52,30.40,1,0,7,0.00
2012-11-30,62.3,48.1,30.0,43.8,38.0,26.3,89,70,50,30.45,30.33,10,0,10,0.00
2012-12-1,66.6,46.4,36.8,50.3,39.7,32.3,88,78,47,30.45,30.35,1,0,6,0.00
2012-12-2,69.1,56.2,44.8,53.6,48.6,41.2,88,76,55,30.42,30.29,7,1,9,0.00
2012-12-3,72.8,53.5,42.9,51.0,44.6,37.7,86,73,45,30.36,30.27,2,0,8,0.00
2012-12-4,72.4,60.4,49.6,54.1,50.5,45.0,88,71,47,30.35,30.22,6,1,8,0.00
2012-12-5,65.3,57.0,51.6,57.5,51.9,46.1,88,83,75,30.23,30.14,6,0,6,0.07
2012-12-6,52.3,48.8,46.1,46.2,36.9,30.5,80,64,48,30.30,30.20,7,0,7,0.00
2012-12-7,59.2,48.8,43.9,47.0,40.9,35.5,88,74,62,30.24,30.05,5,0,5,0.00
2012-12-8,69.3,52.6,42.4,54.9,46.7,37.7,88,81,59,30.11,30.03,7,0,7,0.01
2012-12-9,66.2,57.7,53.1,58.3,51.6,46.7,87,80,74,30.14,30.02,5,0,8,0.00
2012-12-10,63.3,57.9,55.4,57.7,52.3,48.7,87,82,78,30.02,29.73,7,1,7,0.34
2012-12-11,57.9,48.5,41.5,53.4,40.1,32.9,89,74,50,30.18,29.77,9,0,9,0.00
2012-12-12,45.9,43.1,40.7,37.2,34.2,31.7,75,71,66,30.34,30.17,10,0,10,0.00
2012-12-13,54.1,43.8,35.6,32.1,26.6,22.8,69,51,33,30.44,30.32,6,0,10,0.00
2012-12-14,60.2,40.5,26.4,32.1,27.2,22.5,87,62,31,30.45,30.29,5,0,5,0.00
2012-12-15,64.1,46.0,35.5,39.5,34.6,29.5,83,66,35,30.31,30.13,3,0,4,0.00
2012-12-16,52.4,50.3,47.5,48.5,43.6,38.2,87,78,67,30.13,29.95,2,0,2,0.92
2012-12-17,54.4,52.2,49.7,50.4,46.6,43.6,87,81,79,29.95,29.72,6,0,6,0.18
2012-12-18,59.9,51.9,43.0,49.7,37.7,25.3,89,62,29,30.00,29.72,10,1,10,0.00
2012-12-19,68.3,53.9,36.8,42.3,36.6,27.5,75,53,37,30.13,30.00,5,1,7,0.00
2012-12-20,46.5,43.9,38.5,42.0,39.3,29.6,88,84,70,30.13,29.69,4,0,15,1.21
2012-12-21,43.3,37.9,33.1,27.9,20.9,14.9,68,51,39,30.02,29.76,17,4,18,0.00
2012-12-22,56.1,38.7,24.2,20.1,16.0,12.3,71,42,20,30.20,30.01,6,0,6,0.00
2012-12-23,56.4,40.5,25.1,33.7,24.4,14.1,83,55,29,30.22,30.09,4,0,6,0.00
2012-12-24,46.0,42.9,39.4,39.2,36.2,31.9,88,78,60,30.11,29.93,2,0,3,0.98
2012-12-25,46.2,43.9,41.8,42.0,39.1,36.7,88,83,81,30.13,29.95,6,0,6,0.06
2012-12-26,47.8,42.4,33.0,44.4,37.0,27.6,89,81,73,29.95,29.55,11,1,14,2.03
2012-12-27,51.8,36.9,25.6,33.0,28.3,22.1,90,73,43,30.13,29.83,4,0,4,0.00
2012-12-28,45.4,35.6,28.2,31.9,28.5,24.6,88,76,57,30.23,30.02,4,0,5,0.00
2012-12-29,54.9,39.8,33.7,41.9,31.1,21.6,89,72,48,30.14,29.81,12,1,12,0.28
2012-12-30,50.3,33.9,23.1,24.8,21.4,19.3,88,63,31,30.47,30.14,5,0,7,0.00
2012-12-31,52.8,39.8,26.3,28.6,25.3,21.8,86,59,33,30.45,30.19,5,0,9,0.00
2013-1-1,49.0,46.3,42.4,45.0,38.5,27.6,87,75,49,30.20,29.98,5,0,5,0.57